Briggsville, NY

10:06 PM EDT on May 25, 2017 (GMT -0400)
Westchester County | | Change Station

Elev 436 ft 41.07 °N, 73.71 °W | Updated 10 minutes ago

Overcast
Overcast
57 °F
Feels Like 57 °F
N
9
Wind Variable Wind from ENE

Today
High -- | Low -- °F
--% Chance of Precip.
Yesterday
High -- | Low -- °F
Precip. -- in
Pressure 29.50 in
Visibility 1.5 miles
Clouds
Dew Point 55 °F
Humidity 93%
Rainfall 0.74 in
Snow Depth Not available.
5:29 AM 8:16 PM
New Moon, 0% visible
METAR KHPN 260156Z 07008KT 1 1/2SM BR VV003 14/13 A2950 RMK AO2 RAE52 SLP988 P0000 T01390128 $
Pressure 29.50 in
Visibility 1.5 miles
Clouds
Dew Point 55 °F
Humidity 93%
Rainfall 0.74 in
Snow Depth Not available.
5:29 AM 8:16 PM
New Moon, 0% visible
METAR KHPN 260156Z 07008KT 1 1/2SM BR VV003 14/13 A2950 RMK AO2 RAE52 SLP988 P0000 T01390128 $

Get Severe Weather Alerts

Thanks for signing up!

Be on the lookout for a verification email in your inbox.

You'll start receiving the daily forecast at 6 AM.

×

10-Day Weather Forecast

Almanac

Astronomy

May. 25, 2017 Rise Set
Actual Time
Civil Twilight
Nautical Twilight
Astronomical Twilight
Moon
Length of Visible Light
Length of Day
Tomorrow will be .
, % of the Moon is Illuminated

Today's Extremes

State Highs State Lows

Community

WunderPhotos

Category 6

Welcome to Category 6. This is the collective home for Weather Underground's featured writeups by Dr. Jeff Masters (right), Bob Henson (left), Chris Burt, and other regular contributors.

Nearby

Air Quality

  Air Quality AQ Index Pollutant
Not available.

Snow Depth

Station Depth Elevation

Earthquake Activity

City Distance Mag. Time & Date
Minimum magnitude displayed is 2.5.

Coastal Water Temperatures

Place Temperature

Stations

Nearby Weather Stations

Station Location Temp. Windchill Dew Point Humidity Wind Precip. Elev Updated Type
                   

Watches & Warnings

There are currently no watches in effect.